Time;durP1;ratioP1;P1;durP2;ratioP2;P2;SDS_P1;SDS_P2;PMS_P1;PMS_P2;Temp;Humidity;BMP_temperature;BMP_pressure;BME280_temperature;BME280_humidity;BME280_pressure;Samples;Min_cycle;Max_cycle;Signal;HPM_P1;HPM_P2
2022/08/26 00:00:48;;;;;;;16.13;5.70;;;23.70;99.90;;;;;;12496042;28;20395;-80
2022/08/26 00:06:55;;;;;;;16.30;6.45;;;23.70;99.90;;;;;;12476368;28;20049;-79
2022/08/26 00:12:57;;;;;;;18.85;5.32;;;23.80;99.90;;;;;;12483618;28;20046;-79
2022/08/26 00:18:59;;;;;;;15.05;5.78;;;23.70;99.90;;;;;;12489318;28;20074;-81
2022/08/26 00:25:02;;;;;;;14.00;5.40;;;23.80;99.90;;;;;;12476332;28;20099;-81
2022/08/26 00:31:05;;;;;;;17.75;6.07;;;23.90;99.90;;;;;;12483762;28;20413;-81
2022/08/26 00:37:09;;;;;;;14.43;6.50;;;23.80;99.90;;;;;;12467431;28;20045;-81
2022/08/26 00:43:17;;;;;;;12.20;7.47;;;23.70;99.90;;;;;;12472189;28;20049;-81
2022/08/26 00:49:35;;;;;;;20.30;7.32;;;23.50;99.90;;;;;;12497404;28;20053;-81
2022/08/26 00:55:40;;;;;;;17.75;7.30;;;23.30;99.90;;;;;;12495439;28;20391;-80
2022/08/26 01:01:45;;;;;;;14.75;7.07;;;23.10;99.90;;;;;;12513158;28;20108;-81
2022/08/26 01:07:48;;;;;;;15.93;7.30;;;23.10;99.90;;;;;;12482008;28;20137;-81
2022/08/26 01:13:55;;;;;;;17.02;7.75;;;22.90;99.90;;;;;;12475004;28;20038;-81
2022/08/26 01:20:17;;;;;;;12.25;7.05;;;22.80;99.90;;;;;;12489939;28;20041;-81
2022/08/26 01:26:33;;;;;;;12.93;6.93;;;22.70;99.90;;;;;;12496805;28;20057;-81
2022/08/26 01:32:36;;;;;;;11.85;6.95;;;22.70;99.90;;;;;;12480927;28;20042;-81
2022/08/26 01:38:39;;;;;;;;;;;22.70;99.90;;;;;;12488797;28;20409;-81
2022/08/26 01:44:47;;;;;;;12.57;7.53;;;22.60;99.90;;;;;;12490707;28;20068;-81
2022/08/26 01:50:51;;;;;;;15.63;7.43;;;22.60;99.90;;;;;;12485395;28;20053;-80
2022/08/26 01:56:54;;;;;;;17.23;7.57;;;22.50;99.90;;;;;;12480921;28;20084;-81
2022/08/26 02:03:15;;;;;;;14.57;7.32;;;22.50;99.90;;;;;;12507232;28;20739;-81
2022/08/26 02:09:20;;;;;;;15.98;7.57;;;22.40;99.90;;;;;;12523537;28;20056;-81
2022/08/26 02:15:22;;;;;;;17.38;7.50;;;22.40;99.90;;;;;;12518481;28;20059;-81
2022/08/26 02:21:24;;;;;;;14.80;7.18;;;22.40;99.90;;;;;;12495765;28;20069;-81
2022/08/26 02:27:32;;;;;;;12.90;7.13;;;22.40;99.90;;;;;;12493249;28;20394;-80
2022/08/26 02:33:34;;;;;;;12.38;6.65;;;22.40;99.90;;;;;;12468884;28;20061;-81
2022/08/26 02:39:38;;;;;;;17.88;6.80;;;22.30;99.90;;;;;;12488705;28;20049;-81
2022/08/26 02:45:41;;;;;;;18.52;7.13;;;22.20;99.90;;;;;;12491222;28;20088;-81
2022/08/26 02:51:44;;;;;;;14.52;7.30;;;22.10;99.90;;;;;;12467723;28;20091;-81
2022/08/26 02:57:46;;;;;;;24.17;7.87;;;22.00;99.90;;;;;;12479321;28;20050;-80
2022/08/26 03:03:49;;;;;;;18.77;7.68;;;22.00;99.90;;;;;;12481148;28;20041;-81
2022/08/26 03:09:52;;;;;;;20.00;7.93;;;22.00;99.90;;;;;;12492930;28;20528;-81
2022/08/26 03:15:55;;;;;;;20.00;8.18;;;21.90;99.90;;;;;;12505456;28;20049;-81
2022/08/26 03:21:57;;;;;;;14.68;7.95;;;21.80;99.90;;;;;;12494087;28;20049;-80
2022/08/26 03:27:59;;;;;;;19.33;7.93;;;21.80;99.90;;;;;;12506776;28;20060;-80
2022/08/26 03:34:03;;;;;;;19.17;8.25;;;21.80;99.90;;;;;;12479581;28;20101;-81
2022/08/26 03:40:09;;;;;;;18.45;7.88;;;21.60;99.90;;;;;;12499162;28;20045;-81
2022/08/26 03:46:11;;;;;;;18.80;8.32;;;21.60;99.90;;;;;;12438563;28;20125;-81
2022/08/26 03:52:17;;;;;;;18.83;8.07;;;21.60;99.90;;;;;;12496936;28;20763;-81
2022/08/26 03:58:20;;;;;;;16.95;8.20;;;21.60;99.90;;;;;;12486014;28;20053;-80
2022/08/26 04:04:22;;;;;;;17.30;8.90;;;21.60;99.90;;;;;;12482432;28;20057;-81
2022/08/26 04:10:26;;;;;;;14.83;8.50;;;21.60;99.90;;;;;;12490887;28;20057;-80
2022/08/26 04:16:31;;;;;;;25.30;8.57;;;21.50;99.90;;;;;;12506381;28;20049;-81
2022/08/26 04:22:34;;;;;;;22.15;8.48;;;21.60;99.90;;;;;;12498876;28;20054;-81
2022/08/26 04:28:36;;;;;;;21.23;8.88;;;21.50;99.90;;;;;;12481347;28;20506;-81
2022/08/26 04:34:38;;;;;;;20.58;8.25;;;21.40;99.90;;;;;;12486469;28;20440;-80
2022/08/26 04:40:46;;;;;;;23.25;8.93;;;21.40;99.90;;;;;;12495626;28;20054;-81
2022/08/26 04:46:48;;;;;;;24.60;8.93;;;21.40;99.90;;;;;;12506611;28;20168;-81
2022/08/26 04:52:50;;;;;;;17.33;8.68;;;21.30;99.90;;;;;;12472599;28;20036;-81
2022/08/26 04:58:53;;;;;;;15.93;8.85;;;21.30;99.90;;;;;;12467915;28;20053;-81
2022/08/26 05:04:55;;;;;;;19.00;8.45;;;21.30;99.90;;;;;;12466509;28;20045;-81
2022/08/26 05:10:58;;;;;;;19.80;8.85;;;21.30;99.90;;;;;;12452086;28;20482;-81
2022/08/26 05:17:01;;;;;;;25.77;9.07;;;21.30;99.90;;;;;;12457910;28;20508;-81
2022/08/26 05:23:03;;;;;;;21.03;8.70;;;21.40;99.90;;;;;;12457141;28;20080;-81
2022/08/26 05:29:08;;;;;;;20.52;8.85;;;21.40;99.90;;;;;;12454138;28;20422;-81
2022/08/26 05:35:11;;;;;;;21.00;8.55;;;21.40;99.90;;;;;;12475242;28;20452;-81
2022/08/26 05:41:16;;;;;;;18.48;10.20;;;21.50;99.90;;;;;;12467341;28;20136;-81
2022/08/26 05:47:18;;;;;;;15.55;8.30;;;21.50;99.90;;;;;;12477998;28;20132;-81
2022/08/26 05:53:22;;;;;;;18.92;9.10;;;21.50;99.90;;;;;;12489070;28;20041;-81
2022/08/26 05:59:27;;;;;;;19.33;8.98;;;21.50;99.90;;;;;;12510757;28;20068;-82
2022/08/26 06:05:30;;;;;;;19.02;9.02;;;21.60;99.90;;;;;;12511523;28;20037;-81
2022/08/26 06:11:39;;;;;;;18.83;9.18;;;21.70;99.90;;;;;;12479513;28;20081;-81
2022/08/26 06:17:41;;;;;;;22.75;9.02;;;21.60;99.90;;;;;;12498588;28;20053;-80
2022/08/26 06:30:08;;;;;;;14.63;9.00;;;21.70;99.90;;;;;;12489482;28;20057;-81
2022/08/26 06:36:39;;;;;;;23.77;10.45;;;21.70;99.90;;;;;;12497613;28;20156;-80
2022/08/26 06:42:44;;;;;;;19.00;10.23;;;21.70;99.90;;;;;;12494184;28;20425;-81
2022/08/26 06:48:47;;;;;;;22.73;11.20;;;21.80;99.90;;;;;;12465465;28;20049;-81
2022/08/26 06:54:49;;;;;;;20.57;10.80;;;21.90;99.90;;;;;;12455141;28;20136;-81
2022/08/26 07:00:51;;;;;;;20.25;9.38;;;21.80;99.90;;;;;;12447002;28;20099;-82
2022/08/26 07:06:54;;;;;;;21.17;10.10;;;22.00;99.90;;;;;;12449655;28;20064;-81
2022/08/26 07:12:57;;;;;;;20.42;9.48;;;22.30;99.90;;;;;;12450640;28;20216;-82
2022/08/26 07:18:59;;;;;;;20.40;9.52;;;22.50;99.90;;;;;;12450068;28;20117;-81
2022/08/26 07:25:06;;;;;;;27.92;9.35;;;22.60;99.90;;;;;;12462768;28;20100;-82
2022/08/26 07:31:10;;;;;;;20.48;9.13;;;22.70;99.90;;;;;;12447694;28;20053;-82
2022/08/26 07:37:13;;;;;;;24.60;8.93;;;22.80;99.90;;;;;;12477875;28;20041;-82
2022/08/26 07:43:16;;;;;;;18.15;9.10;;;23.00;99.90;;;;;;12464193;28;20069;-81
2022/08/26 07:49:20;;;;;;;21.08;9.15;;;23.10;99.90;;;;;;12470263;28;20095;-82
2022/08/26 07:55:23;;;;;;;20.10;8.30;;;23.20;99.90;;;;;;12478888;28;20068;-81
2022/08/26 08:01:30;;;;;;;24.80;9.68;;;23.30;99.90;;;;;;12499748;28;20038;-82
2022/08/26 08:07:33;;;;;;;21.65;8.90;;;23.40;99.90;;;;;;12479599;28;20631;-82
2022/08/26 08:13:47;;;;;;;16.92;8.55;;;23.50;99.90;;;;;;12486524;28;20192;-82
2022/08/26 08:19:49;;;;;;;23.05;8.82;;;23.70;99.90;;;;;;12495601;28;20057;-82
2022/08/26 08:26:00;;;;;;;15.50;7.93;;;23.90;99.90;;;;;;12474314;28;20045;-82
2022/08/26 08:32:03;;;;;;;22.95;8.68;;;23.90;99.90;;;;;;12406731;28;20042;-82
2022/08/26 08:38:05;;;;;;;19.23;7.72;;;24.10;99.90;;;;;;12405254;28;20050;-82
2022/08/26 08:44:18;;;;;;;21.25;7.55;;;24.20;99.90;;;;;;12410547;28;20185;-82
2022/08/26 08:50:32;;;;;;;22.17;8.20;;;24.40;99.90;;;;;;12374792;28;20112;-82
2022/08/26 08:56:38;;;;;;;21.10;7.40;;;24.60;99.90;;;;;;12390920;28;20344;-82
2022/08/26 09:03:00;;;;;;;20.95;8.05;;;24.70;99.90;;;;;;12395606;28;20572;-82
2022/08/26 09:09:03;;;;;;;19.70;8.05;;;24.70;99.90;;;;;;12379766;28;20618;-81
2022/08/26 09:15:30;;;;;;;15.25;6.65;;;24.70;99.90;;;;;;12377236;28;20376;-82
2022/08/26 09:21:33;;;;;;;25.00;7.75;;;24.90;99.90;;;;;;12376104;28;20035;-82
2022/08/26 09:27:35;;;;;;;17.10;7.57;;;25.00;99.90;;;;;;12406098;28;20061;-82
2022/08/26 09:33:39;;;;;;;;;;;25.00;99.90;;;;;;12497977;28;20299;-81
2022/08/26 09:39:41;;;;;;;20.77;8.07;;;25.20;99.90;;;;;;12465530;28;20020;-82
2022/08/26 09:45:46;;;;;;;22.40;8.20;;;25.30;99.90;;;;;;12468747;28;20106;-82
2022/08/26 09:52:22;;;;;;;17.50;8.60;;;25.20;99.90;;;;;;12483762;28;20054;-82
2022/08/26 09:58:34;;;;;;;23.35;7.72;;;25.50;99.90;;;;;;12452513;28;20122;-82
2022/08/26 10:04:38;;;;;;;17.98;7.05;;;25.90;99.90;;;;;;12463004;28;20406;-82
2022/08/26 10:10:44;;;;;;;15.93;7.90;;;26.10;99.90;;;;;;12481620;28;20050;-81
2022/08/26 10:16:55;;;;;;;20.98;7.35;;;26.30;99.90;;;;;;12464127;28;20050;-81
2022/08/26 10:23:12;;;;;;;19.08;7.55;;;26.70;99.90;;;;;;12482020;28;20540;-81
2022/08/26 10:29:28;;;;;;;17.50;7.47;;;26.90;99.90;;;;;;12493495;28;20057;-82
2022/08/26 10:35:34;;;;;;;15.40;7.13;;;26.90;99.90;;;;;;12486523;28;20079;-82
2022/08/26 10:41:42;;;;;;;22.05;7.97;;;26.90;99.90;;;;;;12472061;28;20041;-83
2022/08/26 10:48:02;;;;;;;28.67;9.23;;;27.00;99.90;;;;;;12487103;28;20057;-82
2022/08/26 10:54:21;;;;;;;21.10;7.88;;;27.10;99.90;;;;;;12466955;28;20077;-81
2022/08/26 11:07:28;;;;;;;19.85;7.68;;;27.40;99.90;;;;;;12481810;28;20053;-81
2022/08/26 11:14:05;;;;;;;15.25;7.57;;;27.50;99.90;;;;;;12475927;28;20052;-81
2022/08/26 11:20:07;;;;;;;15.27;7.88;;;27.20;99.90;;;;;;12475389;28;20102;-81
2022/08/26 11:26:18;;;;;;;15.60;7.85;;;26.90;99.90;;;;;;12425702;28;20064;-81
2022/08/26 11:32:40;;;;;;;22.42;8.85;;;26.80;99.90;;;;;;12453928;28;20042;-81
2022/08/26 11:38:43;;;;;;;17.33;8.33;;;26.40;99.90;;;;;;12473085;28;20435;-82
2022/08/26 11:44:46;;;;;;;19.92;7.72;;;26.20;99.90;;;;;;12471911;28;20053;-82
2022/08/26 11:50:59;;;;;;;22.35;7.47;;;26.70;99.90;;;;;;12496823;28;20150;-81
2022/08/26 11:57:06;;;;;;;19.58;8.38;;;27.40;99.90;;;;;;12481699;28;20382;-81
2022/08/26 12:03:24;;;;;;;23.55;10.30;;;28.10;99.90;;;;;;12480014;28;20046;-82
2022/08/26 12:09:48;;;;;;;22.30;9.20;;;28.50;99.90;;;;;;12470630;28;20053;-82
2022/08/26 12:15:53;;;;;;;16.95;9.85;;;28.50;99.90;;;;;;12484538;28;20570;-86
2022/08/26 12:22:24;;;;;;;28.67;13.52;;;28.30;99.90;;;;;;12475242;28;20050;-85
2022/08/26 12:28:29;;;;;;;22.65;12.38;;;28.60;99.90;;;;;;12472999;28;20046;-86
2022/08/26 12:34:31;;;;;;;24.10;13.93;;;28.30;99.90;;;;;;12465633;28;20045;-87
2022/08/26 12:40:40;;;;;;;19.85;12.82;;;28.80;99.90;;;;;;12489179;28;20057;-83
2022/08/26 12:46:42;;;;;;;16.80;10.85;;;29.00;99.90;;;;;;12468887;28;20099;-84
2022/08/26 12:52:57;;;;;;;43.13;14.25;;;29.20;99.90;;;;;;12484051;28;20050;-85
2022/08/26 12:59:04;;;;;;;63.67;17.45;;;29.20;99.90;;;;;;12506050;28;20059;-86
2022/08/26 13:05:17;;;;;;;194.35;27.80;;;29.20;99.90;;;;;;12506954;28;20458;-85
2022/08/26 13:11:22;;;;;;;;;;;28.70;99.90;;;;;;12495626;28;20049;-84
2022/08/26 13:17:26;;;;;;;68.90;17.80;;;29.00;99.90;;;;;;12483120;28;19925;-86
2022/08/26 13:23:33;;;;;;;18.63;13.35;;;29.00;99.90;;;;;;12473727;28;20156;-86
2022/08/26 13:29:35;;;;;;;21.65;11.52;;;29.30;99.90;;;;;;12477618;28;20054;-85
2022/08/26 13:35:37;;;;;;;16.63;10.77;;;29.10;99.90;;;;;;12476334;28;20151;-86
2022/08/26 13:41:39;;;;;;;19.00;11.23;;;28.80;99.90;;;;;;12485299;28;20045;-84
2022/08/26 13:47:41;;;;;;;21.23;11.60;;;28.60;99.90;;;;;;12492907;28;20057;-86
2022/08/26 13:53:43;;;;;;;11.00;7.47;;;28.10;99.90;;;;;;12477813;28;20532;-85
2022/08/26 13:59:45;;;;;;;11.07;5.40;;;27.70;99.90;;;;;;12475991;28;20045;-84
2022/08/26 14:05:47;;;;;;;12.82;6.10;;;27.70;99.90;;;;;;12477366;28;20296;-85
2022/08/26 14:11:50;;;;;;;12.00;6.03;;;27.20;99.90;;;;;;12482202;28;20442;-85
2022/08/26 14:17:56;;;;;;;22.10;7.35;;;27.20;99.90;;;;;;12476621;28;20045;-85
2022/08/26 14:23:58;;;;;;;10.82;5.03;;;27.30;99.90;;;;;;12479484;28;20487;-85
2022/08/26 14:30:02;;;;;;;12.15;4.78;;;27.30;99.90;;;;;;12474936;28;20041;-84
2022/08/26 14:42:29;;;;;;;8.98;4.30;;;26.90;99.90;;;;;;12478186;28;20049;-84
2022/08/26 14:48:32;;;;;;;6.72;4.05;;;26.70;99.90;;;;;;12452607;28;20046;-86
2022/08/26 14:54:34;;;;;;;8.80;4.53;;;26.60;99.90;;;;;;12482015;28;20045;-87
2022/08/26 15:00:37;;;;;;;17.52;7.60;;;26.50;99.90;;;;;;12484517;28;20049;-82
2022/08/26 15:06:39;;;;;;;17.83;9.80;;;25.90;99.90;;;;;;12512327;28;20152;-88
2022/08/26 15:12:42;;;;;;;16.30;6.45;;;24.10;99.90;;;;;;12489423;28;20111;-83
2022/08/26 15:18:44;;;;;;;17.08;7.75;;;22.50;99.90;;;;;;12465279;28;20464;-83
2022/08/26 15:24:46;;;;;;;14.70;8.82;;;20.70;99.90;;;;;;12469815;28;20050;-84
2022/08/26 15:30:52;;;;;;;14.85;7.88;;;20.10;99.90;;;;;;12477409;28;20051;-84
2022/08/26 15:36:54;;;;;;;13.90;8.40;;;20.10;99.90;;;;;;12470084;28;20057;-82
2022/08/26 15:42:57;;;;;;;11.02;7.07;;;20.10;99.90;;;;;;12491824;28;20041;-83
2022/08/26 15:49:19;;;;;;;11.55;6.50;;;20.50;99.90;;;;;;12479595;28;20057;-83
2022/08/26 15:55:22;;;;;;;13.48;8.02;;;20.60;99.90;;;;;;12480342;28;20528;-83
2022/08/26 16:01:25;;;;;;;14.65;11.18;;;20.50;99.90;;;;;;12496462;28;20049;-83
2022/08/26 16:07:29;;;;;;;25.02;10.88;;;20.60;99.90;;;;;;12477225;28;20076;-83
2022/08/26 16:13:32;;;;;;;24.45;5.47;;;20.80;99.90;;;;;;12474130;28;20045;-84
2022/08/26 16:19:41;;;;;;;10.18;4.43;;;20.70;99.90;;;;;;12475873;28;20048;-84
2022/08/26 16:25:43;;;;;;;7.03;4.80;;;20.10;99.90;;;;;;12490734;28;20037;-84
2022/08/26 16:31:46;;;;;;;6.88;4.35;;;20.30;99.90;;;;;;12402975;28;20046;-85
2022/08/26 16:37:48;;;;;;;4.85;3.80;;;20.20;99.90;;;;;;12394779;28;20129;-84
2022/08/26 16:43:51;;;;;;;7.75;4.10;;;20.50;99.90;;;;;;12393107;28;20063;-84
2022/08/26 16:49:53;;;;;;;7.50;4.03;;;20.90;99.90;;;;;;12396458;28;20053;-85
2022/08/26 16:55:55;;;;;;;5.70;4.00;;;21.40;99.90;;;;;;12383799;28;20427;-84
2022/08/26 17:01:57;;;;;;;8.48;4.45;;;21.40;99.90;;;;;;12391598;28;20039;-83
2022/08/26 17:08:01;;;;;;;6.18;3.97;;;21.80;99.90;;;;;;12400149;28;20046;-84
2022/08/26 17:14:04;;;;;;;5.50;3.83;;;21.70;99.90;;;;;;12391131;28;20045;-84
2022/08/26 17:20:10;;;;;;;9.23;4.47;;;21.70;99.90;;;;;;12387371;28;20042;-84
2022/08/26 17:26:12;;;;;;;7.78;4.43;;;21.40;99.90;;;;;;12363026;28;20053;-85
2022/08/26 17:32:14;;;;;;;7.63;4.65;;;21.60;99.90;;;;;;12426739;28;20046;-85
2022/08/26 17:38:16;;;;;;;6.78;4.57;;;21.70;99.90;;;;;;12452218;28;20041;-85
2022/08/26 17:44:18;;;;;;;8.10;4.63;;;21.80;99.90;;;;;;12437470;28;20042;-85
2022/08/26 17:50:21;;;;;;;10.18;5.30;;;21.70;99.90;;;;;;12434799;28;20050;-85
2022/08/26 17:56:28;;;;;;;6.25;5.10;;;21.70;99.90;;;;;;12436623;28;20148;-85
2022/08/26 18:02:30;;;;;;;7.97;5.60;;;21.60;99.90;;;;;;12431592;28;20041;-85
2022/08/26 18:08:32;;;;;;;8.50;5.50;;;21.60;99.90;;;;;;12430259;28;20049;-85
2022/08/26 18:14:34;;;;;;;8.60;6.32;;;21.50;99.90;;;;;;12431280;28;20045;-85
2022/08/26 18:20:38;;;;;;;9.90;6.23;;;21.30;99.90;;;;;;12439784;28;20079;-85
2022/08/26 18:26:47;;;;;;;13.05;7.60;;;21.30;99.90;;;;;;12437832;28;20050;-85
2022/08/26 18:32:50;;;;;;;11.30;7.30;;;21.30;99.90;;;;;;12421495;28;20546;-85
2022/08/26 18:38:53;;;;;;;16.45;8.65;;;21.40;99.90;;;;;;12404040;28;20391;-85
2022/08/26 18:44:55;;;;;;;15.57;9.48;;;21.00;99.90;;;;;;12393296;28;20050;-85
2022/08/26 18:51:00;;;;;;;17.13;11.07;;;21.00;99.90;;;;;;12400300;28;20050;-85
2022/08/26 18:57:03;;;;;;;15.43;10.05;;;21.10;99.90;;;;;;12399185;28;20678;-85
2022/08/26 19:03:07;;;;;;;14.30;11.43;;;21.20;99.90;;;;;;12392995;28;20483;-85
2022/08/26 19:09:19;;;;;;;15.65;11.77;;;21.10;99.90;;;;;;12403087;28;20058;-85
2022/08/26 19:15:22;;;;;;;16.63;11.60;;;21.10;99.90;;;;;;12394573;28;20534;-85
2022/08/26 19:21:24;;;;;;;17.13;12.30;;;21.10;99.90;;;;;;12407890;28;20498;-85
2022/08/26 19:27:26;;;;;;;19.98;11.43;;;20.90;99.90;;;;;;12398282;28;20062;-85
2022/08/26 19:33:29;;;;;;;20.42;11.73;;;20.90;99.90;;;;;;12452803;28;20042;-84
2022/08/26 19:39:31;;;;;;;21.85;11.07;;;21.00;99.90;;;;;;12447814;28;20049;-84
2022/08/26 19:45:33;;;;;;;14.10;7.68;;;20.90;99.90;;;;;;12446454;28;20092;-84
2022/08/26 19:51:35;;;;;;;9.80;6.20;;;20.90;99.90;;;;;;12455981;28;20088;-84
2022/08/26 19:57:38;;;;;;;13.98;5.88;;;21.00;99.90;;;;;;12444962;28;20042;-84
2022/08/26 20:03:42;;;;;;;10.10;4.25;;;20.70;99.90;;;;;;12438762;28;20185;-84
2022/08/26 20:09:45;;;;;;;10.20;4.53;;;20.70;99.90;;;;;;12445629;28;20066;-84
2022/08/26 20:15:48;;;;;;;10.63;4.35;;;20.50;99.90;;;;;;12438221;28;20038;-84
2022/08/26 20:21:50;;;;;;;12.13;4.72;;;20.50;99.90;;;;;;12441840;28;20049;-84
2022/08/26 20:27:51;;;;;;;12.32;3.92;;;20.50;99.90;;;;;;12457488;28;20135;-83
2022/08/26 20:33:54;;;;;;;8.27;4.03;;;20.30;99.90;;;;;;12441504;28;20046;-84
2022/08/26 20:39:56;;;;;;;9.50;4.05;;;20.30;99.90;;;;;;12450445;28;20196;-84
2022/08/26 20:45:59;;;;;;;7.07;4.05;;;20.30;99.90;;;;;;12451460;28;20054;-83
2022/08/26 20:52:04;;;;;;;9.20;4.15;;;20.20;99.90;;;;;;12449646;28;20050;-83
2022/08/26 20:58:06;;;;;;;10.85;3.90;;;20.40;99.90;;;;;;12455539;28;20165;-84
2022/08/26 21:04:12;;;;;;;9.52;4.00;;;20.40;99.90;;;;;;12446086;28;20042;-84
2022/08/26 21:10:14;;;;;;;11.98;3.80;;;20.20;99.90;;;;;;12452225;28;20054;-83
2022/08/26 21:16:18;;;;;;;9.05;4.18;;;20.20;99.90;;;;;;12466163;28;20137;-83
2022/08/26 21:22:20;;;;;;;;;;;20.10;99.90;;;;;;12452577;28;20050;-83
2022/08/26 21:28:22;;;;;;;7.88;4.22;;;20.20;99.90;;;;;;12484899;28;19921;-84
2022/08/26 21:34:24;;;;;;;7.75;3.80;;;20.30;99.90;;;;;;12470135;28;20411;-85
2022/08/26 21:40:26;;;;;;;10.43;4.20;;;20.30;99.90;;;;;;12453536;28;20042;-84
2022/08/26 21:46:29;;;;;;;9.07;4.28;;;20.20;99.90;;;;;;12453430;28;20081;-84
2022/08/26 21:52:32;;;;;;;8.60;4.00;;;20.10;99.90;;;;;;12424032;28;20061;-84
2022/08/26 21:58:34;;;;;;;9.55;4.25;;;20.00;99.90;;;;;;12452714;28;21012;-84
2022/08/26 22:04:36;;;;;;;8.88;4.03;;;20.00;99.90;;;;;;12438500;28;20410;-84
2022/08/26 22:10:40;;;;;;;9.65;4.20;;;20.10;99.90;;;;;;12441611;28;20414;-84
2022/08/26 22:16:42;;;;;;;8.88;4.32;;;20.20;99.90;;;;;;12459372;28;20050;-83
2022/08/26 22:22:52;;;;;;;14.95;5.40;;;20.10;99.90;;;;;;12448977;28;20048;-84
2022/08/26 22:28:56;;;;;;;8.00;4.90;;;20.10;99.90;;;;;;12459254;28;20072;-84
2022/08/26 22:35:01;;;;;;;14.45;5.75;;;20.10;99.90;;;;;;12481036;28;20048;-84
2022/08/26 22:41:24;;;;;;;13.45;5.88;;;19.90;99.90;;;;;;12495501;28;20049;-84
2022/08/26 22:47:27;;;;;;;12.50;5.70;;;19.90;99.90;;;;;;12484237;28;20045;-84
2022/08/26 22:53:29;;;;;;;14.70;6.32;;;19.90;99.90;;;;;;12496284;28;20076;-84
2022/08/26 22:59:36;;;;;;;18.45;6.63;;;19.90;99.90;;;;;;12486941;28;20053;-84
2022/08/26 23:05:39;;;;;;;12.63;6.57;;;19.90;99.90;;;;;;12508186;28;20038;-84
2022/08/26 23:11:42;;;;;;;18.47;8.30;;;19.90;99.90;;;;;;12477981;28;20930;-84
2022/08/26 23:17:44;;;;;;;17.80;7.73;;;19.90;99.90;;;;;;12471829;28;20100;-84
2022/08/26 23:23:46;;;;;;;17.67;8.25;;;19.80;99.90;;;;;;12483325;28;20295;-84
2022/08/26 23:29:49;;;;;;;19.45;8.80;;;19.60;99.90;;;;;;12491420;28;20057;-84
2022/08/26 23:35:50;;;;;;;15.88;9.23;;;19.60;99.90;;;;;;12504063;28;20046;-84
2022/08/26 23:41:56;;;;;;;24.50;9.57;;;19.60;99.90;;;;;;12493284;28;20061;-84
2022/08/26 23:47:59;;;;;;;17.45;8.63;;;19.30;99.90;;;;;;12497083;28;20053;-84
2022/08/26 23:54:01;;;;;;;15.77;9.77;;;19.30;99.90;;;;;;12497634;28;20073;-84
